Time;durP1;ratioP1;P1;durP2;ratioP2;P2;SDS_P1;SDS_P2;PMS_P1;PMS_P2;Temp;Humidity;BMP_temperature;BMP_pressure;BME280_temperature;BME280_humidity;BME280_pressure;Samples;Min_cycle;Max_cycle;Signal;HPM_P1;HPM_P2
2024/03/08 00:00:54;;;;;;;16.13;10.60;;;;;;;3.03;64.79;99058.78;5098968;28;41273;-78
2024/03/08 00:03:22;;;;;;;13.13;10.07;;;;;;;3.01;63.91;99057.09;5091285;28;41894;-79
2024/03/08 00:05:49;;;;;;;16.17;10.73;;;;;;;2.97;64.84;99058.94;5075291;28;42478;-76
2024/03/08 00:08:17;;;;;;;17.37;11.00;;;;;;;2.96;64.57;99065.09;5073172;28;40238;-75
2024/03/08 00:10:44;;;;;;;17.17;11.33;;;;;;;2.93;64.46;99073.03;5072603;28;41727;-74
2024/03/08 00:13:12;;;;;;;15.17;10.23;;;;;;;2.89;64.19;99059.16;5091022;28;43571;-74
2024/03/08 00:15:41;;;;;;;13.17;8.73;;;;;;;2.88;64.11;99067.06;5071091;28;41899;-78
2024/03/08 00:18:11;;;;;;;15.80;9.27;;;;;;;2.84;64.31;99055.81;5074538;28;40139;-77
2024/03/08 00:20:38;;;;;;;15.50;10.90;;;;;;;2.83;64.26;99066.34;5090915;28;41622;-76
2024/03/08 00:23:06;;;;;;;16.07;9.83;;;;;;;2.79;64.38;99067.31;5091440;28;41816;-78
2024/03/08 00:25:35;;;;;;;16.70;10.97;;;;;;;2.77;64.06;99063.88;5091055;28;41686;-76
2024/03/08 00:28:05;;;;;;;15.17;9.73;;;;;;;2.74;64.17;99051.75;5073367;28;40961;-76
2024/03/08 00:30:33;;;;;;;16.67;10.23;;;;;;;2.67;63.76;99051.97;5072686;28;41651;-75
2024/03/08 00:33:00;;;;;;;14.50;10.07;;;;;;;2.69;63.79;99060.63;5091276;28;42142;-78
2024/03/08 00:35:30;;;;;;;18.73;11.07;;;;;;;2.65;63.82;99056.38;5090999;28;42478;-75
2024/03/08 00:37:57;;;;;;;13.13;8.73;;;;;;;2.59;64.18;99052.19;5074325;28;39484;-74
2024/03/08 00:40:25;;;;;;;14.60;10.90;;;;;;;2.58;64.55;99042.63;5089828;28;42756;-78
2024/03/08 00:42:53;;;;;;;17.13;10.93;;;;;;;2.58;64.56;99052.22;5090565;28;41743;-77
2024/03/08 00:45:22;;;;;;;14.47;9.70;;;;;;;2.53;64.51;99050.59;5073636;28;41202;-75
2024/03/08 00:47:49;;;;;;;21.70;11.70;;;;;;;2.51;65.10;99041.94;5071651;28;40071;-78
2024/03/08 00:50:17;;;;;;;17.17;11.47;;;;;;;2.49;65.56;99043.72;5089806;28;43040;-75
2024/03/08 00:52:47;;;;;;;16.53;10.73;;;;;;;2.47;66.31;99034.22;5074084;28;44603;-78
2024/03/08 00:55:14;;;;;;;16.90;11.47;;;;;;;2.45;66.34;99041.25;5090552;28;41283;-78
2024/03/08 00:57:42;;;;;;;20.83;11.63;;;;;;;2.43;66.01;99035.19;5073862;28;38843;-75
2024/03/08 01:00:11;;;;;;;15.23;10.17;;;;;;;2.41;65.97;99035.25;5073757;28;42779;-76
2024/03/08 01:02:39;;;;;;;17.63;10.83;;;;;;;2.39;66.11;99026.56;5090002;28;43371;-75
2024/03/08 01:05:07;;;;;;;17.43;9.83;;;;;;;2.24;66.55;99003.47;5088777;28;41779;-78
2024/03/08 01:07:35;;;;;;;15.17;9.80;;;;;;;2.32;66.50;99018.94;5073280;28;41670;-77
2024/03/08 01:10:09;;;;;;;16.80;11.40;;;;;;;2.33;67.28;99024.16;5091685;28;41636;-77
2024/03/08 01:12:36;;;;;;;17.70;9.90;;;;;;;2.30;66.79;99011.16;5087397;28;43684;-75
2024/03/08 01:15:04;;;;;;;14.73;10.23;;;;;;;2.24;68.14;98998.22;5094524;28;42324;-79
2024/03/08 01:17:31;;;;;;;17.43;10.67;;;;;;;2.26;68.49;99006.03;5076284;28;39903;-78
2024/03/08 01:19:59;;;;;;;19.57;12.43;;;;;;;2.21;67.98;98998.34;5093378;28;41908;-76
2024/03/08 01:22:28;;;;;;;14.73;10.07;;;;;;;2.20;68.02;99003.59;5077441;28;42855;-78
2024/03/08 01:24:55;;;;;;;20.67;11.80;;;;;;;2.17;69.22;98994.09;5094049;28;41523;-78
2024/03/08 01:27:24;;;;;;;15.40;10.90;;;;;;;2.14;68.98;98991.53;5076818;28;38830;-77
2024/03/08 01:29:52;;;;;;;17.43;11.70;;;;;;;2.10;69.31;98989.94;5077037;28;40041;-77
2024/03/08 01:32:22;;;;;;;17.63;11.67;;;;;;;2.03;69.23;98975.31;5076509;28;44562;-78
2024/03/08 01:34:50;;;;;;;16.70;11.53;;;;;;;2.05;69.65;98978.72;5088312;28;42033;-76
2024/03/08 01:37:17;;;;;;;19.50;11.70;;;;;;;2.03;70.22;98972.69;5094267;28;40356;-76
2024/03/08 01:39:45;;;;;;;19.60;12.93;;;;;;;2.01;71.46;98969.25;5095024;28;41603;-75
2024/03/08 01:42:15;;;;;;;18.10;12.07;;;;;;;1.98;71.91;98962.34;5076330;28;45482;-77
2024/03/08 01:44:44;;;;;;;16.33;11.23;;;;;;;2.00;72.15;98965.78;5093657;28;42998;-76
2024/03/08 08:34:46;;;;;;;19.90;14.17;;;;;;;15.82;39.81;98902.47;5108257;28;20572;-81
2024/03/08 08:37:14;;;;;;;17.57;14.87;;;;;;;15.87;40.79;98871.88;5108387;28;40171;-80
2024/03/08 08:39:41;;;;;;;18.57;14.40;;;;;;;16.09;39.15;98885.94;5090332;28;40830;-79
2024/03/08 08:42:09;;;;;;;17.47;13.80;;;;;;;16.84;39.64;98880.34;5107420;28;43699;-81
2024/03/08 08:44:37;;;;;;;16.10;13.83;;;;;;;18.97;35.12;98903.53;5108383;28;43472;-80
2024/03/08 08:47:04;;;;;;;17.10;14.27;;;;;;;21.38;33.34;98890.69;5090524;28;39439;-78
2024/03/08 08:49:32;;;;;;;15.43;13.60;;;;;;;23.66;29.78;98903.97;5107505;28;41713;-81
2024/03/08 08:52:01;;;;;;;15.85;14.07;;;;;;;25.18;26.45;98921.81;5107491;28;42766;-78
2024/03/08 08:54:28;;;;;;;13.70;12.23;;;;;;;25.99;26.31;98909.06;5089468;28;40632;-81
2024/03/08 08:56:55;;;;;;;14.02;11.90;;;;;;;26.80;25.28;98908.56;5107250;28;39119;-81
2024/03/08 08:59:25;;;;;;;14.68;12.65;;;;;;;27.73;24.76;98898.22;5106392;28;41947;-79
2024/03/08 09:01:53;;;;;;;15.88;13.45;;;;;;;28.03;22.37;98910.47;5107225;28;42989;-82
2024/03/08 09:04:22;;;;;;;13.38;10.85;;;;;;;27.61;23.08;98869.91;5106557;28;41166;-83
2024/03/08 09:06:50;;;;;;;13.05;11.68;;;;;;;28.40;22.13;98883.72;5107901;28;39977;-84
2024/03/08 09:09:19;;;;;;;13.95;12.55;;;;;;;29.08;20.99;98896.03;5089676;28;42615;-81
2024/03/08 09:11:47;;;;;;;12.70;11.13;;;;;;;29.39;20.09;98902.69;5107810;28;43318;-78
2024/03/08 09:14:14;;;;;;;12.63;11.23;;;;;;;29.92;20.36;98884.19;5107588;28;42767;-80
2024/03/08 09:16:42;;;;;;;12.70;11.18;;;;;;;30.92;19.87;98874.13;5106634;28;42200;-82
2024/03/08 09:19:10;;;;;;;12.73;11.38;;;;;;;31.41;19.35;98829.38;5089552;28;41102;-81
2024/03/08 09:21:39;;;;;;;14.23;11.95;;;;;;;32.11;18.92;98877.09;5088961;28;45110;-83
2024/03/08 09:24:07;;;;;;;12.52;11.23;;;;;;;32.64;17.82;98872.69;5106576;28;42496;-82
2024/03/08 09:26:37;;;;;;;13.07;11.65;;;;;;;33.53;17.95;98860.44;5106338;28;39258;-81
2024/03/08 09:29:05;;;;;;;12.60;11.27;;;;;;;34.26;16.17;98870.66;5106300;28;40244;-80
2024/03/08 09:31:32;;;;;;;12.70;10.68;;;;;;;34.19;15.99;98868.06;5105796;28;42696;-81
2024/03/08 09:34:00;;;;;;;13.50;12.05;;;;;;;33.21;16.61;98859.19;5106956;28;43192;-82
2024/03/08 09:36:27;;;;;;;12.07;10.77;;;;;;;32.54;16.87;98845.00;5107523;28;39927;-79
2024/03/08 09:38:54;;;;;;;12.88;11.45;;;;;;;31.62;17.41;98839.88;5106234;28;41748;-82
2024/03/08 09:41:22;;;;;;;13.82;11.57;;;;;;;30.25;18.83;98830.16;5105395;28;41783;-80
2024/03/08 09:43:53;;;;;;;12.50;11.20;;;;;;;28.65;20.44;98813.88;5106787;28;42915;-81
2024/03/08 09:46:22;;;;;;;14.77;12.30;;;;;;;27.77;21.67;98790.63;5090087;28;40193;-82
2024/03/08 09:48:50;;;;;;;14.60;12.00;;;;;;;27.09;22.29;98784.34;5092366;28;42073;-79
2024/03/08 09:51:17;;;;;;;14.27;12.43;;;;;;;26.91;21.47;98781.31;5074841;28;41579;-82
2024/03/08 09:53:46;;;;;;;12.87;11.47;;;;;;;26.53;22.03;98784.44;5092075;28;42590;-80
2024/03/08 09:56:14;;;;;;;14.00;11.50;;;;;;;26.12;21.64;98779.75;5092366;28;40043;-80
2024/03/08 09:59:06;;;;;;;14.63;12.00;;;;;;;24.96;23.66;98760.19;5093799;28;42027;-80
2024/03/08 10:01:35;;;;;;;13.93;11.90;;;;;;;24.31;24.66;98750.94;5075395;28;42877;-80
2024/03/08 10:04:03;;;;;;;14.87;11.53;;;;;;;24.84;23.92;98746.25;5093535;28;43128;-80
2024/03/08 10:06:31;;;;;;;13.10;11.13;;;;;;;25.58;22.75;98760.47;5075619;28;39180;-78
2024/03/08 10:08:58;;;;;;;13.55;11.35;;;;;;;26.25;21.74;98737.44;5075335;28;42238;-83
2024/03/08 10:11:26;;;;;;;12.57;11.27;;;;;;;27.42;21.24;98755.38;5074700;28;44135;-80
2024/03/08 10:13:54;;;;;;;13.35;11.35;;;;;;;27.96;21.29;98757.13;5091910;28;42183;-81
2024/03/08 10:16:24;;;;;;;11.65;10.45;;;;;;;28.33;20.29;98763.00;5075539;28;40408;-81
2024/03/08 10:18:54;;;;;;;12.15;10.82;;;;;;;29.24;19.28;98759.16;5093144;28;42072;-79
2024/03/08 10:21:21;;;;;;;12.57;10.50;;;;;;;29.59;19.26;98759.63;5092177;28;42941;-81
2024/03/08 10:23:49;;;;;;;12.45;10.88;;;;;;;29.70;18.49;98773.59;5074927;28;42794;-78
2024/03/08 10:26:18;;;;;;;11.82;10.63;;;;;;;29.63;19.22;98752.66;5092275;28;39864;-79
2024/03/08 10:28:47;;;;;;;12.85;11.57;;;;;;;30.12;18.46;98759.25;5092963;28;41764;-81
2024/03/08 10:31:15;;;;;;;12.13;10.77;;;;;;;31.18;18.26;98758.97;5093316;28;43338;-86
2024/03/08 10:33:44;;;;;;;11.30;10.20;;;;;;;31.82;17.69;98748.38;5092684;28;42985;-81
2024/03/08 10:36:14;;;;;;;11.35;10.13;;;;;;;32.33;17.82;98754.06;5091990;28;41097;-81
2024/03/08 10:38:46;;;;;;;11.75;10.55;;;;;;;33.22;16.80;98757.41;5078333;28;40659;-81
2024/03/08 10:41:16;;;;;;;11.38;10.18;;;;;;;33.54;16.67;98755.00;5097315;28;43185;-85
2024/03/08 10:43:59;;;;;;;11.27;10.13;;;;;;;33.63;16.59;98756.28;5092816;28;42237;-82
2024/03/08 10:46:34;;;;;;;12.10;10.68;;;;;;;32.99;16.00;98758.31;5089266;28;40939;-82
2024/03/08 10:49:07;;;;;;;11.57;10.45;;;;;;;31.86;17.54;98753.16;5074975;28;40775;-81
2024/03/08 10:51:38;;;;;;;14.27;10.88;;;;;;;31.38;17.60;98745.03;5089977;28;43181;-81
2024/03/08 10:54:07;;;;;;;11.98;10.75;;;;;;;31.41;17.44;98744.53;5091881;28;43121;-82
2024/03/08 10:56:34;;;;;;;13.25;11.38;;;;;;;30.86;17.60;98738.31;5090679;28;40598;-85
2024/03/08 10:59:04;;;;;;;13.15;10.82;;;;;;;31.04;17.78;98736.38;5092735;28;41708;-80
2024/03/08 11:01:31;;;;;;;12.05;10.43;;;;;;;32.15;17.26;98740.44;5074483;28;41932;-81
2024/03/08 11:03:59;;;;;;;11.40;10.15;;;;;;;32.68;16.59;98742.22;5074301;28;41662;-84
2024/03/08 11:06:32;;;;;;;10.93;9.73;;;;;;;33.28;16.27;98741.88;5092751;28;39771;-84
2024/03/08 11:09:01;;;;;;;10.80;9.70;;;;;;;33.79;16.17;98733.53;5074076;28;41547;-80
2024/03/08 11:11:34;;;;;;;11.00;9.52;;;;;;;34.24;16.05;98733.44;5091975;28;42765;-81
2024/03/08 11:34:33;;;;;;;11.70;10.55;;;;;;;35.81;14.57;98697.97;4812950;29;40487;-85
2024/03/08 11:37:22;;;;;;;10.95;9.85;;;;;;;35.79;14.50;98700.97;4806547;29;41531;-81
2024/03/08 11:39:58;;;;;;;10.77;9.68;;;;;;;36.22;14.85;98669.63;4820124;29;41095;-82
2024/03/08 11:42:27;;;;;;;11.50;9.90;;;;;;;36.56;15.59;98669.25;4817900;29;40931;-84
2024/03/08 11:44:55;;;;;;;11.38;10.18;;;;;;;36.20;15.13;98676.47;4818514;29;41324;-82
2024/03/08 11:47:23;;;;;;;11.30;10.07;;;;;;;34.65;15.51;98664.44;4820635;29;42723;-78
2024/03/08 11:49:53;;;;;;;12.35;10.48;;;;;;;33.02;16.63;98656.28;4804693;29;41061;-82
2024/03/08 11:55:36;;;;;;;12.30;11.07;;;;;;;33.01;16.13;98646.38;4699854;23;20245;-80
2024/03/08 11:58:04;;;;;;;11.85;10.55;;;;;;;34.02;16.11;98630.00;4872565;29;44916;-83
2024/03/08 12:00:37;;;;;;;11.40;10.20;;;;;;;35.03;15.44;98639.59;4876827;29;42368;-83
2024/03/08 12:03:07;;;;;;;10.52;9.50;;;;;;;35.36;14.45;98649.59;4872863;29;40278;-80
2024/03/08 12:05:36;;;;;;;11.52;10.35;;;;;;;35.74;14.49;98643.06;4857678;29;41613;-80
2024/03/08 12:08:05;;;;;;;10.75;9.65;;;;;;;36.14;14.30;98637.00;4874240;29;43822;-79
2024/03/08 12:10:32;;;;;;;10.57;9.57;;;;;;;36.47;14.58;98605.50;4875055;29;42307;-76
2024/03/08 12:13:00;;;;;;;10.25;9.15;;;;;;;36.98;13.93;98622.22;4875067;29;41463;-82
2024/03/08 12:15:32;;;;;;;10.32;9.32;;;;;;;37.32;13.73;98634.47;4876085;29;42889;-79
2024/03/08 12:18:00;;;;;;;9.90;9.00;;;;;;;37.22;13.33;98628.09;4874297;29;42807;-78
2024/03/08 12:20:30;;;;;;;9.68;8.77;;;;;;;36.85;14.35;98612.53;4860331;29;41197;-83
2024/03/08 12:23:00;;;;;;;9.80;8.88;;;;;;;36.79;14.89;98597.06;4860612;29;38972;-82
2024/03/08 12:25:29;;;;;;;10.73;9.60;;;;;;;36.19;14.23;98614.16;4875956;29;42845;-80
2024/03/08 12:27:57;;;;;;;10.38;9.27;;;;;;;35.32;14.91;98598.06;4876903;29;42943;-79
2024/03/08 12:30:27;;;;;;;10.75;9.65;;;;;;;35.02;14.71;98599.41;4875068;29;43182;-82
2024/03/08 12:32:57;;;;;;;10.40;9.30;;;;;;;34.43;14.54;98598.44;4859169;29;40907;-80
2024/03/08 12:35:26;;;;;;;10.38;9.38;;;;;;;33.14;16.04;98577.47;4874975;29;41695;-78
2024/03/08 12:37:55;;;;;;;10.65;9.55;;;;;;;31.64;17.47;98555.75;4859458;29;42890;-80
2024/03/08 12:40:29;;;;;;;10.82;9.73;;;;;;;31.80;17.91;98547.84;4875096;29;42195;-80
2024/03/08 12:42:56;;;;;;;10.65;9.55;;;;;;;32.50;16.65;98554.03;4875317;29;39911;-78
2024/03/08 12:45:24;;;;;;;10.48;9.45;;;;;;;33.63;16.32;98541.22;4874632;29;42878;-80
2024/03/08 12:47:52;;;;;;;10.27;9.18;;;;;;;34.46;15.16;98551.19;4858896;29;44067;-83
2024/03/08 12:50:20;;;;;;;10.57;9.50;;;;;;;34.56;14.66;98552.13;4874852;29;41051;-80
2024/03/08 12:52:48;;;;;;;10.52;9.43;;;;;;;34.51;15.15;98554.78;4875122;29;39947;-76
2024/03/08 12:55:16;;;;;;;10.52;9.43;;;;;;;34.73;14.90;98553.94;4858982;29;41184;-84
2024/03/08 12:57:46;;;;;;;10.45;9.35;;;;;;;34.21;14.90;98548.91;4874060;29;43648;-81
2024/03/08 13:00:19;;;;;;;10.70;9.60;;;;;;;32.39;15.92;98535.72;4874593;29;43281;-82
2024/03/08 13:02:47;;;;;;;11.20;10.00;;;;;;;31.66;16.70;98530.84;4874627;29;39165;-80
2024/03/08 13:05:15;;;;;;;11.13;9.95;;;;;;;31.42;17.29;98522.59;4874513;29;42484;-79
2024/03/08 13:07:45;;;;;;;12.88;10.02;;;;;;;32.07;16.90;98516.13;4874849;29;43452;-80
2024/03/08 13:10:15;;;;;;;11.02;9.27;;;;;;;33.02;16.71;98513.59;4874016;29;43259;-80
2024/03/08 13:12:42;;;;;;;10.63;9.23;;;;;;;33.48;15.62;98522.59;4859227;29;40308;-83
2024/03/08 13:15:15;;;;;;;10.35;9.35;;;;;;;33.35;15.42;98525.69;4874172;29;41992;-79
2024/03/08 13:17:44;;;;;;;9.90;8.90;;;;;;;32.87;15.74;98521.59;4874546;29;43373;-80
2024/03/08 13:20:16;;;;;;;10.43;9.32;;;;;;;32.79;15.79;98502.75;4876851;29;43280;-83
2024/03/08 13:22:44;;;;;;;9.65;8.68;;;;;;;33.05;15.75;98509.53;4875202;29;40668;-81
2024/03/08 13:25:13;;;;;;;9.95;8.88;;;;;;;32.99;15.61;98496.81;4861949;29;41807;-80
2024/03/08 13:27:42;;;;;;;9.85;8.88;;;;;;;33.00;16.00;98488.34;4877796;29;42832;-80
2024/03/08 13:30:15;;;;;;;9.30;8.27;;;;;;;33.18;15.85;98493.56;4861074;29;41776;-85
2024/03/08 13:32:43;;;;;;;9.93;8.90;;;;;;;33.31;15.81;98489.66;4875122;29;41463;-80
2024/03/08 13:35:12;;;;;;;10.50;8.45;;;;;;;33.53;15.79;98482.31;4877316;29;42948;-80
2024/03/08 13:37:40;;;;;;;9.30;8.13;;;;;;;33.73;15.74;98486.44;4878044;29;42729;-77
2024/03/08 13:40:11;;;;;;;10.10;9.20;;;;;;;33.72;15.09;98490.25;4878858;29;43554;-80
2024/03/08 13:42:39;;;;;;;10.18;8.55;;;;;;;33.27;15.31;98468.44;4877841;29;40278;-82
2024/03/08 13:45:08;;;;;;;9.25;7.93;;;;;;;33.16;15.69;98478.41;4879126;29;41562;-79
2024/03/08 13:47:39;;;;;;;8.82;7.68;;;;;;;32.71;15.50;98468.38;4879580;29;43450;-80
2024/03/08 13:50:11;;;;;;;8.37;7.57;;;;;;;32.47;15.92;98458.56;4880013;29;41888;-82
2024/03/08 13:52:39;;;;;;;8.53;7.63;;;;;;;32.64;16.50;98455.88;4878533;29;39127;-77
2024/03/08 13:55:08;;;;;;;8.70;7.70;;;;;;;32.50;16.24;98449.03;4879668;29;41759;-78
2024/03/08 13:57:36;;;;;;;8.25;7.50;;;;;;;32.52;15.90;98452.34;4881099;29;44104;-80
2024/03/08 14:00:06;;;;;;;9.93;8.50;;;;;;;32.56;16.11;98445.28;4880364;29;42885;-77
2024/03/08 14:02:42;;;;;;;9.40;8.10;;;;;;;32.13;16.02;98436.53;4877949;29;40308;-79
2024/03/08 14:05:12;;;;;;;9.30;8.30;;;;;;;31.53;16.35;98433.34;4863006;29;41121;-79
2024/03/08 14:07:39;;;;;;;7.97;7.17;;;;;;;30.85;16.87;98435.84;4877512;29;44558;-78
2024/03/08 14:10:09;;;;;;;8.40;7.50;;;;;;;30.74;16.94;98417.53;4861743;29;42245;-80
2024/03/08 14:12:38;;;;;;;9.07;7.43;;;;;;;30.48;17.36;98416.00;4877564;29;41834;-80
2024/03/08 14:15:06;;;;;;;9.80;7.10;;;;;;;30.21;17.10;98410.09;4879324;29;41772;-83
2024/03/08 14:17:34;;;;;;;7.80;7.00;;;;;;;30.00;17.29;98408.75;4877752;29;41740;-80
2024/03/08 14:20:03;;;;;;;8.17;7.07;;;;;;;29.78;17.58;98407.53;4877017;29;42313;-80
2024/03/08 14:22:32;;;;;;;9.07;7.60;;;;;;;29.81;17.91;98396.13;4861414;29;39331;-78
2024/03/08 14:24:59;;;;;;;8.43;7.53;;;;;;;29.60;17.72;98395.56;4876784;29;41517;-77
2024/03/08 14:27:27;;;;;;;7.07;6.33;;;;;;;29.28;17.68;98386.69;4861275;29;42126;-79
2024/03/08 14:29:56;;;;;;;9.10;7.10;;;;;;;28.48;18.23;98368.56;4878099;29;42342;-81
2024/03/08 14:32:24;;;;;;;8.57;7.67;;;;;;;28.04;18.54;98373.06;4876755;29;39049;-81
2024/03/08 14:34:51;;;;;;;8.57;7.27;;;;;;;27.65;18.93;98367.84;4876842;29;42453;-79
2024/03/08 14:37:25;;;;;;;8.07;6.63;;;;;;;27.52;19.02;98358.66;4877885;29;42783;-82
2024/03/08 14:39:52;;;;;;;7.77;6.57;;;;;;;27.52;19.42;98347.78;4860886;29;41502;-81
2024/03/08 14:42:21;;;;;;;7.87;7.00;;;;;;;27.04;19.58;98344.59;4862031;29;39264;-79
2024/03/08 14:44:51;;;;;;;8.97;7.57;;;;;;;26.72;20.01;98346.28;4877800;29;42823;-77
2024/03/08 14:47:18;;;;;;;8.70;6.70;;;;;;;25.78;20.45;98348.31;4877722;29;42712;-86
2024/03/08 14:49:48;;;;;;;9.10;6.80;;;;;;;24.63;21.54;98338.13;4878746;29;43027;-82
2024/03/08 14:52:28;;;;;;;7.53;6.50;;;;;;;23.54;22.73;98327.72;4862375;29;39991;-79
2024/03/08 14:54:58;;;;;;;8.80;7.30;;;;;;;22.70;23.45;98320.97;4877859;29;41917;-84
2024/03/08 14:57:25;;;;;;;8.77;6.87;;;;;;;21.95;24.70;98308.34;4876811;29;42767;-77
2024/03/08 14:59:52;;;;;;;8.27;6.77;;;;;;;21.36;25.16;98304.56;4877451;29;43586;-81
2024/03/08 15:02:21;;;;;;;9.73;7.13;;;;;;;20.65;25.95;98300.13;4860891;29;39639;-85
2024/03/08 15:04:56;;;;;;;9.30;7.30;;;;;;;20.00;26.72;98290.31;4860655;29;42102;-78
2024/03/08 15:07:26;;;;;;;8.50;6.43;;;;;;;19.38;27.49;98272.97;4861347;29;42441;-84
2024/03/08 15:09:56;;;;;;;8.87;7.27;;;;;;;19.04;27.73;98274.91;4877264;29;42434;-83
2024/03/08 15:12:26;;;;;;;8.00;6.90;;;;;;;18.53;28.11;98271.31;4876600;29;39369;-86
2024/03/08 15:14:55;;;;;;;9.23;7.00;;;;;;;18.18;29.13;98257.03;4860601;29;41880;-79
2024/03/08 15:17:22;;;;;;;8.53;7.10;;;;;;;17.74;28.92;98258.06;4860781;29;42521;-78
2024/03/08 15:19:50;;;;;;;8.50;6.23;;;;;;;17.48;29.81;98245.44;4877528;29;42927;-82
2024/03/08 15:22:18;;;;;;;7.17;5.97;;;;;;;17.22;30.23;98236.50;4860788;29;40099;-80
2024/03/08 15:24:45;;;;;;;9.23;6.43;;;;;;;16.86;30.38;98228.44;4860703;29;40394;-82
2024/03/08 15:27:13;;;;;;;10.07;7.00;;;;;;;16.62;30.72;98222.81;4876585;29;43870;-80
2024/03/08 15:29:45;;;;;;;9.57;6.97;;;;;;;16.37;31.69;98218.13;4877685;29;42350;-79
2024/03/08 15:32:18;;;;;;;9.57;6.90;;;;;;;16.08;31.54;98208.41;4874713;29;39894;-85
2024/03/08 15:34:45;;;;;;;9.33;7.37;;;;;;;15.99;32.46;98214.63;4876814;29;40297;-81
2024/03/08 15:37:16;;;;;;;10.50;7.67;;;;;;;15.80;32.66;98210.19;4877498;29;42633;-78
2024/03/08 15:39:44;;;;;;;11.17;7.43;;;;;;;15.60;33.14;98202.34;4861571;29;41215;-83
2024/03/08 15:42:13;;;;;;;10.60;7.60;;;;;;;15.52;33.21;98202.19;4877968;29;40087;-81
2024/03/08 15:44:42;;;;;;;9.30;6.93;;;;;;;15.40;34.18;98191.69;4861190;29;41611;-79
2024/03/08 15:47:11;;;;;;;10.13;7.47;;;;;;;15.39;33.99;98184.66;4878238;29;43561;-77
2024/03/08 15:49:39;;;;;;;10.47;7.70;;;;;;;15.28;34.46;98187.50;4859763;29;40838;-75
2024/03/08 15:52:07;;;;;;;11.77;7.90;;;;;;;15.09;34.25;98171.47;4875915;29;40910;-80
2024/03/08 15:54:36;;;;;;;10.20;7.87;;;;;;;14.87;34.19;98171.75;4875736;29;41612;-81
2024/03/08 15:57:08;;;;;;;9.43;6.73;;;;;;;14.82;34.37;98177.53;4875519;29;43604;-83
2024/03/08 15:59:37;;;;;;;9.27;6.53;;;;;;;14.63;34.61;98170.34;4876056;29;42200;-78
2024/03/08 16:02:07;;;;;;;9.73;7.00;;;;;;;14.49;34.87;98167.22;4876012;29;40915;-80
2024/03/08 16:04:35;;;;;;;10.67;7.33;;;;;;;14.43;35.23;98168.63;4876167;29;41661;-77
2024/03/08 16:07:02;;;;;;;11.13;7.10;;;;;;;14.39;35.40;98164.50;4860312;29;41419;-80
2024/03/08 16:09:30;;;;;;;9.27;6.50;;;;;;;14.18;36.06;98145.13;4876926;29;42277;-81
2024/03/08 16:11:58;;;;;;;10.43;7.37;;;;;;;14.16;36.33;98149.72;4877205;29;39875;-79
2024/03/08 16:14:25;;;;;;;10.93;7.33;;;;;;;14.11;36.90;98150.13;4875515;29;40552;-79
2024/03/08 16:16:53;;;;;;;11.50;7.63;;;;;;;14.02;37.01;98151.78;4875973;29;42983;-84
2024/03/08 16:19:22;;;;;;;12.20;8.03;;;;;;;13.93;37.42;98149.94;4875447;29;42662;-79
2024/03/08 16:21:50;;;;;;;10.70;7.70;;;;;;;13.80;38.16;98149.31;4875905;29;40169;-83
2024/03/08 16:24:19;;;;;;;11.10;8.30;;;;;;;13.72;37.94;98146.47;4875331;29;43014;-79
2024/03/08 16:26:46;;;;;;;10.57;7.57;;;;;;;13.59;38.40;98140.53;4876126;29;42108;-83
2024/03/08 16:29:14;;;;;;;10.30;7.83;;;;;;;13.51;38.56;98135.00;4860995;29;42020;-79
2024/03/08 16:31:44;;;;;;;11.83;7.50;;;;;;;13.42;38.75;98144.63;4876973;29;41714;-80
2024/03/08 16:34:14;;;;;;;10.63;7.53;;;;;;;13.32;39.45;98132.25;4879365;29;41809;-76
2024/03/08 16:36:43;;;;;;;11.63;8.13;;;;;;;13.18;39.27;98120.97;4884492;29;43003;-76
2024/03/08 16:39:11;;;;;;;10.23;7.20;;;;;;;13.12;39.79;98116.13;4877503;29;43434;-78
2024/03/08 16:41:39;;;;;;;10.10;7.40;;;;;;;13.07;39.72;98122.81;4876143;29;38750;-79
2024/03/08 16:44:08;;;;;;;11.47;7.90;;;;;;;12.95;40.30;98114.06;4859020;29;40915;-78
2024/03/08 16:46:36;;;;;;;10.87;7.23;;;;;;;12.84;40.84;98108.81;4875671;29;43868;-79
2024/03/08 16:49:04;;;;;;;9.57;7.53;;;;;;;12.76;40.44;98119.22;4859760;29;42590;-82
2024/03/08 16:51:33;;;;;;;10.17;7.43;;;;;;;12.64;40.69;98120.22;4877039;29;40815;-82
2024/03/08 16:54:02;;;;;;;11.67;8.90;;;;;;;12.51;41.24;98110.63;4859539;29;40968;-78
2024/03/08 16:56:30;;;;;;;11.53;8.40;;;;;;;12.36;41.25;98098.63;4878076;29;43098;-76
2024/03/08 16:58:58;;;;;;;10.27;7.63;;;;;;;12.18;41.47;98103.59;4878167;29;43338;-77
2024/03/08 17:01:28;;;;;;;10.03;7.73;;;;;;;12.20;41.77;98111.44;4878594;29;39836;-78
2024/03/08 17:03:58;;;;;;;12.63;8.20;;;;;;;12.06;42.17;98119.66;4862710;29;40895;-79
2024/03/08 17:06:26;;;;;;;9.53;6.63;;;;;;;11.98;42.03;98112.34;4878457;29;43434;-83
2024/03/08 17:08:53;;;;;;;11.93;7.30;;;;;;;11.82;42.95;98107.41;4878132;29;41516;-77
2024/03/08 17:11:23;;;;;;;9.83;7.67;;;;;;;11.76;42.79;98107.03;4878329;29;40427;-81
2024/03/08 17:13:51;;;;;;;11.03;7.23;;;;;;;11.62;43.04;98100.13;4878012;29;42590;-78
2024/03/08 17:16:24;;;;;;;9.90;7.20;;;;;;;11.56;43.14;98105.06;4878700;29;42698;-81
2024/03/08 17:18:51;;;;;;;9.70;7.03;;;;;;;11.28;43.75;98071.91;4876087;29;42240;-79
2024/03/08 17:21:18;;;;;;;9.57;7.50;;;;;;;11.38;43.51;98104.69;4863040;29;39850;-79
2024/03/08 17:23:46;;;;;;;9.10;7.03;;;;;;;11.30;43.67;98110.59;4879393;29;42791;-77
2024/03/08 17:26:15;;;;;;;10.37;7.13;;;;;;;11.08;44.00;98094.66;4878576;29;42521;-80
2024/03/08 17:28:46;;;;;;;8.90;6.23;;;;;;;11.11;43.55;98105.88;4879262;29;42258;-79
2024/03/08 17:31:13;;;;;;;9.57;6.47;;;;;;;11.04;43.92;98109.09;4877779;29;39907;-80
2024/03/08 17:33:42;;;;;;;10.60;7.90;;;;;;;10.90;44.75;98096.91;4880228;29;42922;-78
2024/03/08 17:36:11;;;;;;;9.33;7.10;;;;;;;10.82;44.57;98101.94;4863562;29;41831;-77
2024/03/08 17:38:43;;;;;;;9.83;6.13;;;;;;;10.74;44.29;98115.78;4878953;29;42079;-82
2024/03/08 17:41:12;;;;;;;8.83;6.50;;;;;;;10.67;44.61;98111.03;4879238;29;38816;-78
2024/03/08 17:43:41;;;;;;;9.77;6.77;;;;;;;10.57;45.25;98110.03;4863483;29;40639;-81
2024/03/08 17:46:12;;;;;;;11.73;7.57;;;;;;;10.41;46.03;98095.28;4863300;29;43959;-74
2024/03/08 17:48:41;;;;;;;9.93;6.90;;;;;;;10.38;46.09;98103.47;4879019;29;40904;-80
2024/03/08 17:51:08;;;;;;;8.67;6.73;;;;;;;10.30;46.31;98103.16;4879054;29;38808;-81
2024/03/08 17:53:36;;;;;;;15.23;10.50;;;;;;;10.22;46.94;98100.25;4876875;29;41812;-76
2024/03/08 17:56:05;;;;;;;11.47;8.77;;;;;;;10.16;47.42;98108.59;4877514;29;42738;-81
2024/03/08 17:58:33;;;;;;;11.27;7.50;;;;;;;9.98;47.47;98099.34;4875462;29;43142;-76
2024/03/08 18:01:00;;;;;;;11.93;7.20;;;;;;;10.00;47.16;98113.31;4862599;29;38826;-78
2024/03/08 18:03:30;;;;;;;9.43;6.97;;;;;;;9.91;47.90;98111.31;4877667;29;42944;-76
2024/03/08 18:05:58;;;;;;;9.53;7.00;;;;;;;9.87;47.89;98115.16;4877203;29;43661;-80
2024/03/08 18:08:25;;;;;;;9.83;6.67;;;;;;;9.79;48.39;98106.91;4861874;29;43874;-78
2024/03/08 18:10:52;;;;;;;9.03;7.10;;;;;;;9.70;48.51;98101.31;4878865;29;39578;-79
2024/03/08 18:13:21;;;;;;;12.67;7.00;;;;;;;9.65;48.46;98108.72;4877276;29;40646;-79
2024/03/08 18:15:48;;;;;;;11.00;7.17;;;;;;;9.60;48.78;98108.22;4878870;29;43023;-78
2024/03/08 18:18:17;;;;;;;12.07;8.00;;;;;;;9.51;49.35;98100.09;4861787;29;41629;-81
2024/03/08 18:20:46;;;;;;;11.00;7.30;;;;;;;9.44;49.35;98094.38;4877494;29;40775;-76
2024/03/08 18:23:15;;;;;;;12.00;6.83;;;;;;;9.38;49.46;98100.09;4877391;29;42680;-77
2024/03/08 18:25:44;;;;;;;8.77;7.23;;;;;;;9.28;50.22;98091.94;4861718;29;42955;-80
2024/03/08 18:28:12;;;;;;;10.53;7.97;;;;;;;9.26;50.72;98093.03;4877337;29;42664;-80
2024/03/08 18:30:41;;;;;;;9.80;6.87;;;;;;;9.18;50.37;98095.34;4877668;29;39531;-81
2024/03/08 18:33:11;;;;;;;10.60;7.63;;;;;;;9.15;50.55;98103.50;4878457;29;41841;-80
2024/03/08 18:35:40;;;;;;;9.87;7.13;;;;;;;9.10;50.65;98098.53;4876532;29;42974;-82
2024/03/08 18:38:10;;;;;;;9.00;7.20;;;;;;;9.07;50.64;98096.09;4877942;29;44018;-79
2024/03/08 18:40:39;;;;;;;10.50;7.57;;;;;;;8.91;50.80;98077.78;4862696;29;40232;-79
2024/03/08 18:43:07;;;;;;;10.93;7.37;;;;;;;9.01;50.41;98104.44;4879336;29;42035;-78
2024/03/08 18:45:35;;;;;;;9.97;7.50;;;;;;;8.97;50.45;98095.88;4878034;29;42694;-80